createdAt,value
2023-01-29T00:01:38.591Z,30.90
2023-01-29T00:04:05.744Z,30.98
2023-01-29T00:06:33.138Z,30.23
2023-01-29T00:09:00.274Z,31.05
2023-01-29T00:11:27.191Z,30.25
2023-01-29T00:13:54.294Z,29.40
2023-01-29T00:16:21.323Z,31.42
2023-01-29T00:18:48.276Z,30.20
2023-01-29T00:21:17.762Z,31.40
2023-01-29T00:23:45.143Z,29.60
2023-01-29T00:26:12.839Z,31.17
2023-01-29T00:28:44.457Z,32.05
2023-01-29T00:31:14.174Z,33.17
2023-01-29T00:33:41.503Z,31.00
2023-01-29T00:36:10.864Z,31.60
2023-01-29T00:38:38.820Z,31.35
2023-01-29T00:41:32.569Z,33.05
2023-01-29T00:44:20.150Z,32.75
2023-01-29T00:46:47.115Z,32.20
2023-01-29T00:49:14.074Z,31.95
2023-01-29T00:51:41.102Z,33.08
2023-01-29T00:54:07.979Z,33.08
2023-01-29T00:56:37.087Z,33.30
2023-01-29T00:59:04.881Z,33.10
2023-01-29T01:01:50.431Z,33.13
2023-01-29T01:04:17.483Z,33.22
2023-01-29T01:06:44.330Z,32.58
2023-01-29T01:09:30.131Z,32.33
2023-01-29T01:11:57.042Z,30.95
2023-01-29T01:14:23.879Z,30.85
2023-01-29T01:16:51.054Z,31.50
2023-01-29T01:19:18.006Z,31.33
2023-01-29T01:21:48.138Z,31.23
2023-01-29T01:24:15.470Z,30.73
2023-01-29T01:26:42.555Z,32.72
2023-01-29T01:29:09.424Z,32.03
2023-01-29T01:31:36.587Z,31.58
2023-01-29T01:34:03.553Z,32.85
2023-01-29T01:36:32.347Z,30.15
2023-01-29T01:38:59.484Z,29.58
2023-01-29T01:41:26.658Z,30.88
2023-01-29T01:44:04.524Z,32.40
2023-01-29T01:46:34.005Z,30.60
2023-01-29T01:49:13.482Z,31.58
2023-01-29T01:51:46.595Z,31.40
2023-01-29T01:54:20.968Z,31.58
2023-01-29T01:56:55.441Z,31.13
2023-01-29T01:59:24.061Z,31.33
2023-01-29T02:01:54.345Z,31.33
2023-01-29T02:04:44.117Z,33.25
2023-01-29T02:07:32.752Z,32.33
2023-01-29T02:10:16.624Z,30.33
2023-01-29T02:12:45.425Z,31.10
2023-01-29T02:15:13.262Z,31.88
2023-01-29T02:20:34.421Z,31.00
2023-01-29T02:23:33.319Z,32.05
2023-01-29T02:26:20.124Z,32.33
2023-01-29T02:29:26.967Z,30.88
2023-01-29T02:32:06.055Z,31.70
2023-01-29T02:35:09.904Z,31.10
2023-01-29T02:37:44.782Z,33.00
2023-01-29T02:40:29.169Z,30.58
2023-01-29T02:43:04.359Z,32.78
2023-01-29T02:45:43.344Z,32.03
2023-01-29T02:48:17.733Z,31.07
2023-01-29T02:51:00.600Z,30.27
2023-01-29T02:53:30.238Z,31.90
2023-01-29T02:58:43.725Z,31.02
2023-01-29T03:01:23.014Z,30.00
2023-01-29T03:03:55.922Z,30.38
2023-01-29T03:06:29.013Z,30.77
2023-01-29T03:08:59.938Z,29.85
2023-01-29T03:11:34.251Z,30.58
2023-01-29T03:14:08.909Z,30.13
2023-01-29T03:16:53.285Z,30.75
2023-01-29T03:19:32.110Z,31.33
2023-01-29T03:22:04.374Z,32.85
2023-01-29T03:25:02.661Z,32.00
2023-01-29T03:28:05.201Z,29.92
2023-01-29T03:31:04.933Z,32.17
2023-01-29T03:33:58.226Z,32.42
2023-01-29T03:36:37.935Z,32.95
2023-01-29T03:39:11.490Z,31.23
2023-01-29T03:41:44.074Z,32.92
2023-01-29T03:44:18.110Z,31.33
2023-01-29T03:47:13.658Z,32.35
2023-01-29T03:50:06.701Z,32.42
2023-01-29T03:53:01.688Z,32.10
2023-01-29T03:55:36.927Z,30.55
2023-01-29T03:58:12.979Z,31.13
2023-01-29T04:00:45.164Z,30.52
2023-01-29T04:03:26.565Z,31.10
2023-01-29T04:06:09.676Z,30.48
2023-01-29T04:08:58.157Z,33.08
2023-01-29T04:11:29.400Z,30.92
2023-01-29T04:13:58.291Z,32.00
2023-01-29T04:16:31.514Z,32.45
2023-01-29T04:19:13.214Z,32.20
2023-01-29T04:21:43.031Z,30.83
2023-01-29T04:24:12.310Z,32.63
2023-01-29T04:26:39.246Z,31.10
2023-01-29T04:29:38.615Z,34.22
2023-01-29T04:32:32.062Z,32.97
2023-01-29T04:35:29.585Z,32.42
2023-01-29T04:38:37.550Z,31.38
2023-01-29T04:41:29.192Z,31.33
2023-01-29T04:44:05.613Z,31.90
2023-01-29T04:47:12.541Z,32.47
2023-01-29T04:49:54.698Z,32.20
2023-01-29T04:52:39.870Z,31.45
2023-01-29T04:55:10.988Z,31.25
2023-01-29T04:57:59.419Z,30.90
2023-01-29T05:00:35.020Z,30.95
2023-01-29T05:03:02.917Z,33.00
2023-01-29T05:05:31.353Z,31.70
2023-01-29T05:07:59.189Z,32.42
2023-01-29T05:10:26.809Z,31.98
2023-01-29T05:13:03.435Z,33.25
2023-01-29T05:15:38.963Z,32.25
2023-01-29T05:18:09.056Z,31.70
2023-01-29T05:20:41.640Z,31.02
2023-01-29T05:23:26.639Z,32.15
2023-01-29T05:25:53.746Z,32.13
2023-01-29T05:28:20.555Z,31.65
2023-01-29T05:30:49.250Z,31.08
2023-01-29T05:33:20.441Z,32.45
2023-01-29T05:35:47.928Z,30.33
2023-01-29T05:38:15.394Z,31.63
2023-01-29T05:40:42.617Z,33.10
2023-01-29T05:43:16.655Z,33.40
2023-01-29T05:45:51.503Z,32.42
2023-01-29T05:48:18.453Z,32.75
2023-01-29T05:50:45.345Z,34.30
2023-01-29T05:53:12.322Z,33.28
2023-01-29T05:55:39.177Z,33.03
2023-01-29T05:58:06.342Z,33.45
2023-01-29T06:00:33.208Z,34.38
2023-01-29T06:03:00.976Z,33.88
2023-01-29T06:05:27.860Z,32.55
2023-01-29T06:07:54.929Z,33.67
2023-01-29T06:10:21.810Z,33.78
2023-01-29T06:12:48.793Z,34.25
2023-01-29T06:15:15.838Z,34.85
2023-01-29T06:17:42.933Z,30.98
2023-01-29T06:20:10.610Z,32.92
2023-01-29T06:22:37.521Z,32.20
2023-01-29T06:25:05.015Z,31.40
2023-01-29T06:27:31.941Z,28.20
2023-01-29T06:29:58.851Z,30.60
2023-01-29T06:32:25.701Z,28.75
2023-01-29T06:34:53.262Z,31.60
2023-01-29T06:37:20.129Z,29.42
2023-01-29T06:39:47.007Z,32.00
2023-01-29T06:42:16.669Z,31.50
2023-01-29T06:47:10.331Z,29.98
2023-01-29T06:49:37.241Z,31.58
2023-01-29T06:52:04.164Z,31.50
2023-01-29T06:54:31.094Z,29.60
2023-01-29T06:56:57.924Z,30.95
2023-01-29T06:59:24.807Z,31.77
2023-01-29T07:01:51.835Z,30.90
2023-01-29T07:04:18.709Z,32.00
2023-01-29T07:06:45.604Z,31.63
2023-01-29T07:09:14.105Z,33.47
2023-01-29T07:11:41.091Z,34.95
2023-01-29T07:14:08.242Z,34.72
2023-01-29T07:16:35.214Z,32.80
2023-01-29T07:19:02.344Z,32.72
2023-01-29T07:21:29.493Z,30.65
2023-01-29T07:23:56.589Z,31.88
2023-01-29T07:26:23.498Z,30.92
2023-01-29T07:28:50.435Z,31.50
2023-01-29T07:31:17.426Z,32.05
2023-01-29T07:33:45.136Z,31.70
2023-01-29T07:36:12.845Z,32.30
2023-01-29T07:38:39.773Z,32.58
2023-01-29T07:41:06.991Z,32.80
2023-01-29T07:43:33.931Z,30.17
2023-01-29T07:46:05.061Z,29.02
2023-01-29T07:48:32.048Z,30.30
2023-01-29T07:51:00.291Z,28.77
2023-01-29T07:53:28.502Z,28.88
2023-01-29T07:55:55.682Z,27.80
2023-01-29T07:58:22.812Z,27.95
2023-01-29T08:00:50.095Z,26.92
2023-01-29T08:03:20.080Z,27.80
2023-01-29T08:05:47.568Z,28.10
2023-01-29T08:08:15.145Z,26.90
2023-01-29T08:10:42.755Z,29.20
2023-01-29T08:13:09.838Z,30.23
2023-01-29T08:15:39.045Z,29.67
2023-01-29T08:18:06.887Z,29.95
2023-01-29T08:20:34.030Z,29.08
2023-01-29T08:23:02.836Z,28.65
2023-01-29T08:25:29.974Z,27.92
2023-01-29T08:27:58.502Z,29.30
2023-01-29T08:30:27.581Z,29.25
2023-01-29T08:33:10.945Z,29.33
2023-01-29T08:35:37.918Z,30.63
2023-01-29T08:38:05.743Z,30.02
2023-01-29T08:40:35.028Z,30.95
2023-01-29T08:43:04.134Z,30.85
2023-01-29T08:45:37.270Z,29.75
2023-01-29T08:48:09.585Z,29.65
2023-01-29T08:50:37.656Z,29.38
2023-01-29T08:53:10.299Z,28.50
2023-01-29T08:55:41.414Z,29.65
2023-01-29T08:58:10.794Z,28.38
2023-01-29T09:00:38.291Z,27.58
2023-01-29T09:03:07.703Z,28.05
2023-01-29T09:05:37.653Z,26.67
2023-01-29T09:08:05.546Z,25.77
2023-01-29T09:10:35.083Z,25.95
2023-01-29T09:13:02.106Z,26.92
2023-01-29T09:15:29.077Z,27.25
2023-01-29T09:17:58.951Z,22.98
2023-01-29T09:20:25.950Z,22.15
2023-01-29T09:22:53.742Z,20.65
2023-01-29T09:25:20.771Z,18.98
2023-01-29T09:27:47.596Z,20.05
2023-01-29T09:30:14.758Z,18.38
2023-01-29T09:32:57.274Z,18.65
2023-01-29T09:35:24.617Z,17.42
2023-01-29T09:37:51.980Z,19.63
2023-01-29T09:40:27.855Z,18.13
2023-01-29T09:43:03.159Z,19.38
2023-01-29T09:45:31.384Z,17.08
2023-01-29T09:48:02.100Z,17.83
2023-01-29T09:50:40.150Z,17.83
2023-01-29T09:53:18.959Z,17.90
2023-01-29T09:55:51.379Z,16.87
2023-01-29T09:58:25.377Z,16.10
2023-01-29T10:01:18.463Z,16.05
2023-01-29T10:04:15.287Z,16.05
2023-01-29T10:06:45.196Z,15.43
2023-01-29T10:09:20.989Z,15.18
2023-01-29T10:12:09.699Z,14.63
2023-01-29T10:14:56.839Z,14.73
2023-01-29T10:17:48.946Z,15.52
2023-01-29T10:20:37.361Z,14.55
2023-01-29T10:23:18.755Z,15.68
2023-01-29T10:25:47.352Z,14.38
2023-01-29T10:28:46.368Z,13.88
2023-01-29T10:31:39.411Z,13.85
2023-01-29T10:34:15.497Z,12.13
2023-01-29T10:36:45.668Z,13.43
2023-01-29T10:39:20.848Z,12.90
2023-01-29T10:41:56.576Z,12.68
2023-01-29T10:44:29.562Z,12.32
2023-01-29T10:47:30.589Z,11.50
2023-01-29T10:50:37.278Z,12.80
2023-01-29T10:53:27.789Z,12.45
2023-01-29T10:56:22.325Z,12.25
2023-01-29T10:59:31.618Z,13.38
2023-01-29T11:02:03.329Z,13.18
2023-01-29T11:04:32.537Z,12.88
2023-01-29T11:07:00.288Z,13.00
2023-01-29T11:09:39.285Z,12.77
2023-01-29T11:12:13.709Z,12.93
2023-01-29T11:14:53.270Z,11.75
2023-01-29T11:17:23.289Z,11.85
2023-01-29T11:19:51.769Z,11.45
2023-01-29T11:22:23.016Z,12.50
2023-01-29T11:25:18.985Z,13.30
2023-01-29T11:27:52.745Z,13.25
2023-01-29T11:30:31.490Z,13.13
2023-01-29T11:33:23.749Z,13.70
2023-01-29T11:35:52.719Z,12.82
2023-01-29T11:38:24.813Z,13.45
2023-01-29T11:40:52.701Z,12.15
2023-01-29T11:43:33.144Z,12.13
2023-01-29T11:46:06.267Z,13.20
2023-01-29T11:48:59.060Z,13.20
2023-01-29T11:51:34.147Z,14.15
2023-01-29T11:54:03.415Z,14.27
2023-01-29T11:56:39.942Z,12.77
2023-01-29T11:59:13.745Z,13.68
2023-01-29T12:01:42.299Z,14.18
2023-01-29T12:04:27.746Z,13.82
2023-01-29T12:06:55.094Z,13.95
2023-01-29T12:09:27.349Z,14.68
2023-01-29T12:11:54.660Z,15.02
2023-01-29T12:14:30.048Z,16.85
2023-01-29T12:17:04.442Z,17.10
2023-01-29T12:19:43.725Z,16.35
2023-01-29T12:22:16.571Z,15.80
2023-01-29T12:24:56.597Z,16.30
2023-01-29T12:27:56.013Z,16.27
2023-01-29T12:30:33.933Z,15.38
2023-01-29T12:33:16.986Z,13.48
2023-01-29T12:36:12.699Z,11.27
2023-01-29T12:38:41.737Z,12.40
2023-01-29T12:41:39.394Z,11.30
2023-01-29T12:44:13.461Z,11.20
2023-01-29T12:46:45.808Z,10.23
2023-01-29T12:49:17.280Z,9.63
2023-01-29T12:51:59.051Z,12.23
2023-01-29T12:54:35.138Z,12.20
2023-01-29T12:57:07.971Z,12.35
2023-01-29T12:59:46.136Z,11.45
2023-01-29T13:02:42.429Z,11.63
2023-01-29T13:05:44.299Z,11.07
2023-01-29T13:08:35.139Z,10.38
2023-01-29T13:11:08.007Z,10.73
2023-01-29T13:13:54.121Z,10.98
2023-01-29T13:16:28.108Z,11.43
2023-01-29T13:19:05.920Z,10.25
2023-01-29T13:21:39.633Z,10.50
2023-01-29T13:24:14.597Z,11.85
2023-01-29T13:26:46.186Z,11.80
2023-01-29T13:29:28.401Z,10.82
2023-01-29T13:31:57.779Z,10.98
2023-01-29T13:34:31.775Z,11.20
2023-01-29T13:37:03.890Z,12.18
2023-01-29T13:39:34.251Z,12.45
2023-01-29T13:42:14.850Z,12.73
2023-01-29T13:44:42.069Z,12.60
2023-01-29T13:47:11.693Z,12.02
2023-01-29T13:49:53.471Z,10.63
2023-01-29T13:52:46.201Z,12.13
2023-01-29T13:55:20.038Z,12.00
2023-01-29T13:57:46.937Z,11.38
2023-01-29T14:00:24.350Z,12.40
2023-01-29T14:03:00.234Z,11.32
2023-01-29T14:05:29.942Z,12.07
2023-01-29T14:08:01.708Z,11.90
2023-01-29T14:10:33.815Z,13.13
2023-01-29T14:13:03.829Z,12.90
2023-01-29T14:15:34.536Z,12.50
2023-01-29T14:18:21.184Z,11.40
2023-01-29T14:20:48.162Z,12.20
2023-01-29T14:23:44.081Z,11.75
2023-01-29T14:26:36.853Z,12.02
2023-01-29T14:29:14.535Z,12.05
2023-01-29T14:34:35.840Z,12.80
2023-01-29T14:37:14.410Z,13.75
2023-01-29T14:39:50.218Z,15.70
2023-01-29T14:42:49.433Z,13.43
2023-01-29T14:45:31.305Z,12.25
2023-01-29T14:48:03.071Z,11.95
2023-01-29T14:50:32.834Z,11.25
2023-01-29T14:55:46.785Z,10.68
2023-01-29T14:58:36.924Z,11.27
2023-01-29T15:01:07.970Z,11.55
2023-01-29T15:03:49.762Z,11.85
2023-01-29T15:06:23.685Z,10.65
2023-01-29T15:09:13.501Z,10.85
2023-01-29T15:14:36.462Z,11.20
2023-01-29T15:17:09.110Z,11.68
2023-01-29T15:19:45.102Z,11.23
2023-01-29T15:22:16.787Z,12.13
2023-01-29T15:24:45.206Z,12.98
2023-01-29T15:27:20.432Z,13.63
2023-01-29T15:29:55.261Z,14.48
2023-01-29T15:32:31.143Z,14.85
2023-01-29T15:34:59.053Z,14.82
2023-01-29T15:37:32.281Z,13.80
2023-01-29T15:40:00.847Z,12.98
2023-01-29T15:42:29.487Z,13.90
2023-01-29T15:44:56.561Z,14.82
2023-01-29T15:47:29.030Z,14.18
2023-01-29T15:49:57.313Z,13.93
2023-01-29T15:52:28.889Z,13.63
2023-01-29T15:54:57.815Z,12.25
2023-01-29T15:57:41.320Z,11.55
2023-01-29T16:00:20.197Z,11.20
2023-01-29T16:02:47.295Z,11.23
2023-01-29T16:05:19.372Z,12.27
2023-01-29T16:07:47.301Z,12.50
2023-01-29T16:10:26.452Z,12.65
2023-01-29T16:12:53.997Z,14.85
2023-01-29T16:15:30.512Z,12.75
2023-01-29T16:17:58.214Z,12.52
2023-01-29T16:20:36.506Z,13.00
2023-01-29T16:23:04.658Z,13.35
2023-01-29T16:25:33.716Z,12.80
2023-01-29T16:28:04.903Z,12.93
2023-01-29T16:30:31.903Z,14.02
2023-01-29T16:33:04.472Z,14.25
2023-01-29T16:35:32.795Z,13.73
2023-01-29T16:38:07.806Z,12.70
2023-01-29T16:40:37.950Z,12.98
2023-01-29T16:43:17.201Z,11.90
2023-01-29T16:46:02.307Z,12.52
2023-01-29T16:48:34.781Z,13.13
2023-01-29T16:51:13.568Z,15.60
2023-01-29T16:53:52.313Z,14.88
2023-01-29T16:56:23.759Z,16.27
2023-01-29T16:58:52.415Z,15.50
2023-01-29T17:01:20.475Z,14.65
2023-01-29T17:04:05.730Z,14.85
2023-01-29T17:06:33.446Z,14.35
2023-01-29T17:09:01.011Z,14.32
2023-01-29T17:11:40.386Z,13.50
2023-01-29T17:14:09.126Z,14.75
2023-01-29T17:16:46.576Z,14.13
2023-01-29T17:19:18.420Z,13.73
2023-01-29T17:21:46.136Z,13.02
2023-01-29T17:24:13.027Z,13.73
2023-01-29T17:26:40.440Z,12.30
2023-01-29T17:29:19.011Z,13.52
2023-01-29T17:31:46.479Z,12.93
2023-01-29T17:34:14.898Z,12.40
2023-01-29T17:36:45.368Z,13.30
2023-01-29T17:39:20.668Z,13.05
2023-01-29T17:41:51.473Z,12.88
2023-01-29T17:44:18.748Z,12.82
2023-01-29T17:46:46.315Z,12.63
2023-01-29T17:49:25.231Z,13.10
2023-01-29T17:51:57.051Z,12.98
2023-01-29T17:54:25.663Z,12.85
2023-01-29T17:56:53.769Z,13.18
2023-01-29T17:59:23.988Z,13.65
2023-01-29T18:01:52.020Z,12.82
2023-01-29T18:04:18.985Z,13.40
2023-01-29T18:06:49.116Z,13.07
2023-01-29T18:09:18.851Z,13.90
2023-01-29T18:11:46.220Z,12.20
2023-01-29T18:14:14.035Z,13.13
2023-01-29T18:16:42.471Z,12.68
2023-01-29T18:19:13.433Z,13.38
2023-01-29T18:21:40.343Z,13.18
2023-01-29T18:24:08.329Z,12.32
2023-01-29T18:26:36.105Z,11.98
2023-01-29T18:29:04.040Z,11.45
2023-01-29T18:31:31.362Z,11.63
2023-01-29T18:33:58.551Z,11.27
2023-01-29T18:36:25.660Z,11.68
2023-01-29T18:38:52.597Z,11.18
2023-01-29T18:41:19.665Z,11.27
2023-01-29T18:43:46.637Z,12.32
2023-01-29T18:46:13.847Z,11.88
2023-01-29T18:48:42.609Z,13.05
2023-01-29T18:51:09.915Z,12.45
2023-01-29T18:53:36.801Z,12.73
2023-01-29T18:56:05.822Z,13.10
2023-01-29T18:58:36.840Z,12.77
2023-01-29T19:01:09.581Z,12.32
2023-01-29T19:03:37.023Z,12.68
2023-01-29T19:06:05.703Z,11.48
2023-01-29T19:08:33.068Z,11.90
2023-01-29T19:11:05.582Z,11.20
2023-01-29T19:13:32.955Z,12.02
2023-01-29T19:16:00.140Z,11.77
2023-01-29T19:18:27.890Z,11.50
2023-01-29T19:20:55.039Z,11.55
2023-01-29T19:23:22.425Z,12.43
2023-01-29T19:25:49.427Z,13.20
2023-01-29T19:28:16.357Z,14.35
2023-01-29T19:30:43.215Z,13.32
2023-01-29T19:33:10.934Z,13.13
2023-01-29T19:35:38.156Z,12.77
2023-01-29T19:38:05.339Z,13.48
2023-01-29T19:40:32.296Z,12.88
2023-01-29T19:42:59.721Z,13.57
2023-01-29T19:45:49.963Z,13.57
2023-01-29T19:48:14.825Z,14.43
2023-01-29T19:50:42.431Z,14.25
2023-01-29T19:53:20.715Z,13.43
2023-01-29T19:56:08.963Z,12.90
2023-01-29T19:58:38.820Z,11.85
2023-01-29T20:01:29.435Z,12.90
2023-01-29T20:04:00.611Z,12.50
2023-01-29T20:06:31.526Z,13.18
2023-01-29T20:08:58.662Z,12.77
2023-01-29T20:11:25.621Z,12.77
2023-01-29T20:13:54.078Z,13.40
2023-01-29T20:16:22.101Z,13.18
2023-01-29T20:19:14.359Z,12.65
2023-01-29T20:21:45.020Z,11.73
2023-01-29T20:24:13.179Z,13.15
2023-01-29T20:26:40.240Z,13.43
2023-01-29T20:29:07.631Z,12.30
2023-01-29T20:31:34.888Z,12.50
2023-01-29T20:34:11.011Z,13.73
2023-01-29T20:36:38.466Z,12.52
2023-01-29T20:39:08.710Z,12.23
2023-01-29T20:41:36.824Z,12.20
2023-01-29T20:44:03.778Z,12.23
2023-01-29T20:46:30.797Z,13.80
2023-01-29T20:48:57.845Z,13.45
2023-01-29T20:51:24.816Z,13.50
2023-01-29T20:53:51.683Z,12.73
2023-01-29T20:56:18.732Z,13.77
2023-01-29T20:58:59.121Z,13.90
2023-01-29T21:01:26.029Z,14.10
2023-01-29T21:03:53.019Z,12.80
2023-01-29T21:06:19.882Z,12.20
2023-01-29T21:08:46.820Z,13.40
2023-01-29T21:11:13.826Z,14.23
2023-01-29T21:13:40.734Z,13.43
2023-01-29T21:16:08.384Z,13.30
2023-01-29T21:18:35.242Z,12.55
2023-01-29T21:21:02.115Z,12.32
2023-01-29T21:23:29.135Z,12.75
2023-01-29T21:26:04.327Z,13.70
2023-01-29T21:28:32.130Z,14.63
2023-01-29T21:31:04.043Z,15.05
2023-01-29T21:33:31.135Z,14.45
2023-01-29T21:35:59.422Z,14.27
2023-01-29T21:38:26.469Z,13.07
2023-01-29T21:40:58.216Z,13.13
2023-01-29T21:43:25.217Z,13.85
2023-01-29T21:46:00.434Z,14.13
2023-01-29T21:48:27.444Z,13.98
2023-01-29T21:50:54.479Z,13.55
2023-01-29T21:53:21.484Z,12.85
2023-01-29T21:55:48.526Z,13.00
2023-01-29T21:58:15.445Z,13.45
2023-01-29T22:00:42.308Z,13.38
2023-01-29T22:03:09.247Z,13.70
2023-01-29T22:05:36.069Z,15.27
2023-01-29T22:08:04.789Z,13.35
2023-01-29T22:10:33.997Z,13.13
2023-01-29T22:13:02.002Z,13.63
2023-01-29T22:15:28.995Z,12.95
2023-01-29T22:17:55.991Z,13.52
2023-01-29T22:20:29.921Z,14.05
2023-01-29T22:23:00.719Z,13.45
2023-01-29T22:25:27.940Z,13.73
2023-01-29T22:27:55.066Z,13.93
2023-01-29T22:30:25.682Z,14.10
2023-01-29T22:32:52.613Z,14.52
2023-01-29T22:35:19.417Z,13.50
2023-01-29T22:37:46.589Z,13.18
2023-01-29T22:40:13.856Z,13.07
2023-01-29T22:42:40.724Z,12.63
2023-01-29T22:45:08.943Z,13.32
2023-01-29T22:47:35.842Z,12.75
2023-01-29T22:50:04.206Z,13.98
2023-01-29T22:52:38.381Z,13.57
2023-01-29T22:55:13.088Z,14.57
2023-01-29T22:57:40.118Z,13.20
2023-01-29T23:00:10.603Z,12.77
2023-01-29T23:02:38.840Z,13.38
2023-01-29T23:05:06.390Z,14.38
2023-01-29T23:07:34.000Z,14.50
2023-01-29T23:10:00.855Z,13.27
2023-01-29T23:12:27.784Z,14.32
2023-01-29T23:14:54.612Z,13.80
2023-01-29T23:17:21.498Z,14.60
2023-01-29T23:19:48.344Z,15.25
2023-01-29T23:22:15.178Z,14.10
2023-01-29T23:24:42.066Z,15.25
2023-01-29T23:27:15.323Z,14.65
2023-01-29T23:29:43.710Z,13.75
2023-01-29T23:32:11.845Z,14.38
2023-01-29T23:34:39.277Z,14.43
2023-01-29T23:37:06.181Z,14.30
2023-01-29T23:39:33.013Z,14.68
2023-01-29T23:42:00.171Z,14.95
2023-01-29T23:44:27.304Z,15.40
2023-01-29T23:46:54.547Z,15.40
2023-01-29T23:49:21.542Z,15.25
2023-01-29T23:51:49.831Z,15.68
2023-01-29T23:54:17.575Z,17.05
2023-01-29T23:56:45.154Z,15.07
2023-01-29T23:59:12.602Z,15.43
